CDT,Max TemperatureF,Mean TemperatureF,Min TemperatureF,Max Dew PointF,MeanDew PointF,Min DewpointF,Max Humidity, Mean Humidity, Min Humidity, Max Sea Level PressureIn, Mean Sea Level PressureIn, Min Sea Level PressureIn, Max VisibilityMiles, Mean VisibilityMiles, Min VisibilityMiles, Max Wind SpeedMPH, Mean Wind SpeedMPH, Max Gust SpeedMPH,PrecipitationIn, CloudCover, Events, WindDirDegrees
2013-10-1,90,75,61,62,57,51,81,56,31,29.88,29.82,29.78,10,10,10,23,14,30,0.00,0,,165
2013-10-2,88,77,66,70,65,59,90,71,46,29.95,29.86,29.78,10,10,9,25,14,31,0.00,3,,166
2013-10-3,91,80,69,70,66,62,94,70,42,29.86,29.76,29.66,10,10,9,28,22,37,0.11,1,,180
2013-10-4,89,74,60,67,63,51,100,69,46,29.95,29.79,29.67,10,9,0,28,22,53,0.88,3,Fog-Rain-Thunderstorm,157
2013-10-5,68,59,50,48,38,33,74,50,27,30.15,30.08,29.95,10,10,10,24,18,33,0.00,4,Rain-Thunderstorm,360
2013-10-6,77,60,46,44,36,29,77,45,21,30.17,30.11,30.06,10,10,9,25,11,33,0.00,0,,332
2013-10-7,79,62,46,47,43,36,86,56,25,30.19,30.12,30.07,10,10,7,9,6,,0.00,0,,60
2013-10-8,82,68,54,43,41,38,59,41,22,30.08,30.00,29.91,10,10,10,21,13,26,0.00,0,,165
2013-10-9,84,68,55,49,47,43,74,47,27,30.02,29.94,29.89,10,9,2,26,17,33,0.00,0,,174
2013-10-10,84,72,59,59,55,49,81,58,38,29.97,29.87,29.75,10,10,10,30,20,37,0.00,0,,176
2013-10-11,88,74,61,61,46,27,90,47,11,29.84,29.77,29.72,10,10,10,25,18,32,0.00,0,,210
2013-10-12,77,65,55,47,44,38,72,49,33,30.15,30.02,29.83,10,10,10,22,12,25,0.00,0,,51
2013-10-13,73,64,55,65,56,48,90,74,63,30.28,30.18,30.10,10,10,5,21,11,25,0.00,6,,97
2013-10-14,75,68,62,70,66,59,100,90,64,30.14,29.97,29.82,10,7,0,39,14,52,1.39,7,Fog-Rain-Thunderstorm,176
2013-10-15,68,59,50,67,48,40,96,73,51,30.15,30.04,29.86,10,10,5,25,16,34,0.00,2,,15
2013-10-16,52,48,42,41,39,37,89,72,57,30.22,30.15,30.11,10,10,9,15,10,,0.02,5,Rain,23
2013-10-17,70,53,37,49,41,36,97,69,31,30.11,30.05,29.97,10,10,8,9,6,,0.00,2,,188
2013-10-18,55,46,37,49,44,35,100,90,74,30.24,30.06,29.94,10,6,1,29,13,36,0.20,7,Rain,43
2013-10-19,64,48,33,41,36,32,96,70,31,30.24,30.15,30.03,10,10,7,14,8,,0.00,0,,256
2013-10-20,71,56,42,52,44,37,85,69,44,30.02,29.89,29.77,10,10,10,20,12,25,0.00,0,,174
2013-10-21,63,54,45,49,41,36,86,62,38,30.16,30.06,29.88,10,10,10,25,14,31,0.00,1,,48
2013-10-22,79,58,39,43,39,37,89,66,24,30.15,30.12,30.03,10,4,1,15,9,,0.00,0,,272
2013-10-23,82,64,45,48,41,35,86,50,18,30.13,30.05,29.97,10,7,1,21,7,26,0.00,0,,234
2013-10-24,62,54,46,47,40,36,89,63,39,30.36,30.25,30.08,10,10,10,28,14,33,0.00,0,,60
2013-10-25,64,52,39,48,40,33,83,63,48,30.43,30.33,30.19,10,10,10,17,13,16,0.00,2,,136
2013-10-26,73,62,52,59,53,42,97,76,59,30.18,30.12,30.04,10,9,2,23,14,32,0.04,6,Rain-Thunderstorm,207
2013-10-27,70,54,39,52,37,23,87,58,18,30.16,30.07,29.97,10,10,10,14,7,,0.00,0,,229
2013-10-28,69,60,53,63,59,52,100,93,83,30.06,29.97,29.92,10,5,0,23,15,31,0.00,6,Fog-Rain,166
2013-10-29,80,73,66,67,65,63,94,82,58,29.98,29.92,29.86,10,10,7,23,19,33,0.00,4,,181
2013-10-30,78,71,64,67,66,63,96,85,66,29.95,29.80,29.70,10,8,0,30,18,43,0.48,6,Fog-Rain-Thunderstorm,194
2013-10-31,68,59,48,61,46,37,90,64,32,29.84,29.74,29.61,10,10,6,30,16,40,0.12,2,Rain-Thunderstorm,269